createdAt,value
2022-08-30T00:04:38.385Z,29.30
2022-08-30T00:09:44.143Z,29.50
2022-08-30T00:14:49.922Z,29.60
2022-08-30T00:19:57.414Z,29.80
2022-08-30T00:25:03.198Z,29.80
2022-08-30T00:30:08.842Z,29.90
2022-08-30T00:35:15.315Z,30.20
2022-08-30T00:40:24.971Z,30.30
2022-08-30T00:45:34.147Z,30.40
2022-08-30T00:50:49.815Z,30.50
2022-08-30T00:55:55.837Z,30.70
2022-08-30T01:01:02.519Z,30.80
2022-08-30T01:06:09.232Z,30.90
2022-08-30T01:11:15.833Z,31.10
2022-08-30T01:16:21.637Z,31.20
2022-08-30T01:21:47.078Z,31.80
2022-08-30T01:26:51.754Z,32.30
2022-08-30T01:31:56.889Z,32.40
2022-08-30T01:37:03.712Z,32.50
2022-08-30T01:42:08.880Z,32.90
2022-08-30T01:47:13.751Z,33.10
2022-08-30T01:52:19.283Z,33.50
2022-08-30T01:57:25.179Z,34.00
2022-08-30T02:02:31.470Z,34.40
2022-08-30T02:07:36.616Z,34.60
2022-08-30T02:12:41.820Z,34.90
2022-08-30T02:17:46.724Z,35.10
2022-08-30T02:22:51.595Z,34.60
2022-08-30T02:27:57.030Z,35.00
2022-08-30T02:33:02.179Z,35.60
2022-08-30T02:38:07.219Z,35.90
2022-08-30T02:43:13.062Z,35.30
2022-08-30T02:48:18.133Z,35.30
2022-08-30T02:53:23.380Z,35.30
2022-08-30T02:58:31.367Z,35.20
2022-08-30T03:03:37.398Z,34.40
2022-08-30T03:08:42.786Z,34.80
2022-08-30T03:13:48.178Z,35.10
2022-08-30T03:18:52.924Z,35.50
2022-08-30T03:23:58.028Z,35.40
2022-08-30T03:29:04.717Z,35.60
2022-08-30T03:34:12.401Z,35.50
2022-08-30T03:39:17.600Z,35.30
2022-08-30T03:44:23.214Z,35.30
2022-08-30T03:49:27.952Z,35.30
2022-08-30T03:54:33.603Z,35.10
2022-08-30T03:59:39.141Z,35.20
2022-08-30T04:04:44.218Z,34.90
2022-08-30T04:09:49.268Z,34.80
2022-08-30T04:14:54.653Z,34.70
2022-08-30T04:20:00.151Z,34.40
2022-08-30T04:25:06.078Z,34.40
2022-08-30T04:30:11.514Z,34.30
2022-08-30T04:35:16.959Z,34.30
2022-08-30T04:40:22.127Z,34.70
2022-08-30T04:45:27.696Z,35.90
2022-08-30T04:50:33.070Z,36.60
2022-08-30T04:55:49.284Z,37.90
2022-08-30T05:00:54.510Z,38.00
2022-08-30T05:06:00.204Z,39.00
2022-08-30T05:11:06.932Z,38.90
2022-08-30T05:16:12.387Z,39.20
2022-08-30T05:21:28.121Z,39.30
2022-08-30T05:26:34.410Z,39.20
2022-08-30T05:31:39.973Z,39.10
2022-08-30T05:36:45.259Z,39.50
2022-08-30T05:41:50.520Z,39.80
2022-08-30T05:46:55.208Z,40.10
2022-08-30T05:52:00.393Z,40.50
2022-08-30T05:57:05.754Z,40.50
2022-08-30T06:02:11.191Z,40.70
2022-08-30T06:07:18.011Z,41.30
2022-08-30T06:12:26.108Z,41.60
2022-08-30T06:17:30.918Z,42.30
2022-08-30T06:22:36.346Z,42.50
2022-08-30T06:27:41.128Z,43.50
2022-08-30T06:32:46.251Z,43.60
2022-08-30T06:37:51.176Z,43.70
2022-08-30T06:42:56.514Z,43.80
2022-08-30T06:48:01.294Z,43.60
2022-08-30T06:53:07.618Z,43.50
2022-08-30T06:58:13.183Z,43.30
2022-08-30T07:03:18.649Z,44.00
2022-08-30T07:08:24.693Z,44.40
2022-08-30T07:13:30.304Z,44.50
2022-08-30T07:22:46.384Z,44.70
2022-08-30T07:27:53.446Z,44.80
2022-08-30T07:32:59.528Z,44.80
2022-08-30T07:38:04.549Z,44.20
2022-08-30T07:43:09.740Z,44.80
2022-08-30T07:48:15.218Z,45.30
2022-08-30T07:53:21.557Z,45.10
2022-08-30T07:58:27.042Z,45.70
2022-08-30T08:03:33.009Z,45.50
2022-08-30T08:08:39.625Z,44.70
2022-08-30T08:13:53.036Z,42.40
2022-08-30T08:19:10.212Z,40.30
2022-08-30T08:24:16.601Z,38.90
2022-08-30T08:29:21.705Z,38.00
2022-08-30T08:34:27.019Z,37.40
2022-08-30T08:39:34.446Z,36.90
2022-08-30T08:45:08.724Z,36.30
2022-08-30T08:50:21.460Z,36.10
2022-08-30T08:55:28.093Z,35.90
2022-08-30T09:00:34.612Z,35.80
2022-08-30T09:05:45.013Z,35.70
2022-08-30T09:11:05.680Z,35.50
2022-08-30T09:16:11.124Z,35.50
2022-08-30T09:21:30.405Z,35.40
2022-08-30T09:26:39.709Z,35.20
2022-08-30T09:32:22.493Z,35.10
2022-08-30T09:37:55.564Z,35.00
2022-08-30T09:43:21.613Z,34.80
2022-08-30T09:48:31.806Z,34.80
2022-08-30T09:54:16.592Z,34.60
2022-08-30T09:59:24.308Z,34.50
2022-08-30T10:04:41.731Z,34.40
2022-08-30T10:09:50.109Z,34.30
2022-08-30T10:15:16.845Z,34.10
2022-08-30T10:20:35.236Z,33.90
2022-08-30T10:25:53.328Z,33.80
2022-08-30T10:31:12.249Z,33.70
2022-08-30T10:36:19.150Z,33.50
2022-08-30T10:41:32.100Z,33.40
2022-08-30T10:46:52.639Z,33.40
2022-08-30T10:51:59.699Z,33.30
2022-08-30T10:57:06.401Z,33.30
2022-08-30T11:02:29.354Z,33.10
2022-08-30T11:07:53.203Z,33.00
2022-08-30T11:13:07.884Z,32.80
2022-08-30T11:18:14.677Z,32.70
2022-08-30T11:23:39.005Z,32.50
2022-08-30T11:28:47.720Z,32.30
2022-08-30T11:34:02.703Z,32.20
2022-08-30T11:39:09.909Z,32.10
2022-08-30T11:44:23.902Z,32.00
2022-08-30T11:49:47.505Z,31.90
2022-08-30T11:55:29.853Z,31.90
2022-08-30T12:00:43.689Z,31.80
2022-08-30T12:06:00.243Z,31.80
2022-08-30T12:11:29.371Z,31.70
2022-08-30T12:17:05.149Z,31.70
2022-08-30T12:22:11.601Z,31.70
2022-08-30T12:27:32.686Z,31.70
2022-08-30T12:32:47.293Z,31.60
2022-08-30T12:38:04.452Z,31.60
2022-08-30T12:43:26.575Z,31.50
2022-08-30T12:48:40.154Z,31.50
2022-08-30T12:53:51.328Z,31.50
2022-08-30T12:58:57.171Z,31.50
2022-08-30T13:04:22.853Z,31.50
2022-08-30T13:09:42.629Z,31.40
2022-08-30T13:14:48.502Z,31.30
2022-08-30T13:20:15.065Z,31.20
2022-08-30T13:25:22.142Z,31.10
2022-08-30T13:30:28.581Z,31.10
2022-08-30T13:35:35.149Z,31.00
2022-08-30T13:40:41.441Z,30.90
2022-08-30T13:45:47.474Z,30.70
2022-08-30T13:50:53.312Z,30.70
2022-08-30T13:55:58.737Z,30.60
2022-08-30T14:01:04.314Z,30.60
2022-08-30T14:06:29.725Z,30.40
2022-08-30T14:11:37.094Z,30.30
2022-08-30T14:16:46.473Z,30.30
2022-08-30T14:21:52.933Z,30.30
2022-08-30T14:26:58.209Z,30.20
2022-08-30T14:32:03.664Z,30.10
2022-08-30T14:37:09.158Z,30.10
2022-08-30T14:42:18.747Z,30.00
2022-08-30T14:47:29.460Z,30.10
2022-08-30T14:52:35.981Z,30.00
2022-08-30T14:57:42.072Z,30.00
2022-08-30T15:02:47.642Z,29.90
2022-08-30T15:07:54.677Z,29.80
2022-08-30T15:13:00.419Z,29.80
2022-08-30T15:18:10.501Z,29.80
2022-08-30T15:23:17.199Z,29.80
2022-08-30T15:28:28.408Z,29.70
2022-08-30T15:33:33.704Z,29.80
2022-08-30T15:38:38.776Z,29.70
2022-08-30T15:43:44.939Z,29.60
2022-08-30T15:48:53.492Z,29.70
2022-08-30T15:53:59.664Z,29.60
2022-08-30T15:59:05.307Z,29.50
2022-08-30T16:04:13.640Z,29.50
2022-08-30T16:09:19.146Z,29.40
2022-08-30T16:14:24.789Z,29.40
2022-08-30T16:19:30.714Z,29.40
2022-08-30T16:24:37.983Z,29.30
2022-08-30T16:29:43.108Z,29.30
2022-08-30T16:34:49.793Z,29.30
2022-08-30T16:39:55.780Z,29.30
2022-08-30T16:45:02.567Z,29.30
2022-08-30T16:50:18.321Z,29.30
2022-08-30T16:55:24.214Z,29.40
2022-08-30T17:00:29.571Z,29.30
2022-08-30T17:05:36.868Z,29.30
2022-08-30T17:10:43.835Z,29.20
2022-08-30T17:15:55.942Z,29.10
2022-08-30T17:21:02.108Z,29.00
2022-08-30T17:26:07.491Z,29.00
2022-08-30T17:31:14.920Z,28.90
2022-08-30T17:36:20.479Z,28.90
2022-08-30T17:41:26.538Z,28.80
2022-08-30T17:46:34.491Z,28.80
2022-08-30T17:51:43.489Z,28.70
2022-08-30T17:56:49.944Z,28.70
2022-08-30T18:01:58.125Z,28.70
2022-08-30T18:07:04.856Z,28.70
2022-08-30T18:12:11.881Z,28.70
2022-08-30T18:17:18.128Z,28.70
2022-08-30T18:22:24.216Z,28.70
2022-08-30T18:27:29.992Z,28.70
2022-08-30T18:32:36.294Z,28.70
2022-08-30T18:37:43.460Z,28.70
2022-08-30T18:42:48.608Z,28.70
2022-08-30T18:47:53.993Z,28.80
2022-08-30T18:53:00.304Z,28.70
2022-08-30T18:58:07.024Z,28.70
2022-08-30T19:03:14.049Z,28.70
2022-08-30T19:08:19.537Z,28.80
2022-08-30T19:13:25.150Z,28.70
2022-08-30T19:18:30.479Z,28.60
2022-08-30T19:23:38.070Z,28.60
2022-08-30T19:28:44.181Z,28.50
2022-08-30T19:33:49.738Z,28.50
2022-08-30T19:38:55.424Z,28.40
2022-08-30T19:44:04.437Z,28.40
2022-08-30T19:49:11.918Z,28.40
2022-08-30T19:54:18.532Z,28.30
2022-08-30T19:59:24.390Z,28.30
2022-08-30T20:04:31.265Z,28.30
2022-08-30T20:09:37.246Z,28.30
2022-08-30T20:14:43.036Z,28.20
2022-08-30T20:19:48.091Z,28.20
2022-08-30T20:24:54.583Z,28.20
2022-08-30T20:30:02.017Z,28.20
2022-08-30T20:35:11.766Z,28.10
2022-08-30T20:40:18.146Z,28.00
2022-08-30T20:45:23.799Z,28.00
2022-08-30T20:50:36.042Z,27.90
2022-08-30T20:55:49.647Z,27.90
2022-08-30T21:00:57.366Z,27.80
2022-08-30T21:06:03.206Z,27.80
2022-08-30T21:11:09.204Z,27.80
2022-08-30T21:16:14.446Z,27.80
2022-08-30T21:21:27.139Z,27.80
2022-08-30T21:26:33.587Z,27.80
2022-08-30T21:31:40.087Z,27.80
2022-08-30T21:36:48.637Z,27.80
2022-08-30T21:41:58.359Z,27.80
2022-08-30T21:47:03.632Z,27.80
2022-08-30T21:52:09.195Z,27.90
2022-08-30T21:57:15.320Z,27.80
2022-08-30T22:02:21.050Z,27.90
2022-08-30T22:07:26.084Z,27.90
2022-08-30T22:12:32.055Z,27.90
2022-08-30T22:17:37.367Z,27.80
2022-08-30T22:22:42.581Z,27.80
2022-08-30T22:27:47.912Z,27.80
2022-08-30T22:32:53.389Z,27.80
2022-08-30T22:37:59.910Z,27.80
2022-08-30T22:43:05.922Z,27.80
2022-08-30T22:48:11.677Z,27.70
2022-08-30T22:53:17.292Z,27.80
2022-08-30T22:58:23.548Z,27.80
2022-08-30T23:03:29.220Z,28.00
2022-08-30T23:08:34.181Z,28.20
2022-08-30T23:13:40.640Z,28.30
2022-08-30T23:18:48.258Z,28.30
2022-08-30T23:24:13.489Z,28.50
2022-08-30T23:29:37.420Z,28.70
2022-08-30T23:35:01.963Z,29.00
2022-08-30T23:40:27.058Z,29.20
2022-08-30T23:45:50.955Z,29.50
2022-08-30T23:51:21.891Z,29.70
2022-08-30T23:56:46.224Z,29.90
